createdAt,value
2017-06-02T00:00:01.686Z,60.03
2017-06-02T00:01:11.758Z,60.42
2017-06-02T00:02:21.794Z,60.32
2017-06-02T00:03:32.142Z,60.13
2017-06-02T00:04:42.185Z,60.23
2017-06-02T00:05:52.517Z,60.03
2017-06-02T00:07:02.903Z,60.03
2017-06-02T00:08:13.460Z,60.03
2017-06-02T00:09:23.807Z,60.03
2017-06-02T00:10:34.155Z,60.03
2017-06-02T00:11:43.891Z,60.03
2017-06-02T00:12:54.242Z,60.03
2017-06-02T00:14:04.605Z,60.03
2017-06-02T00:15:14.948Z,59.75
2017-06-02T00:16:25.293Z,60.13
2017-06-02T00:17:35.008Z,60.03
2017-06-02T00:18:45.386Z,59.84
2017-06-02T00:19:55.746Z,60.03
2017-06-02T00:21:06.099Z,60.03
2017-06-02T00:22:16.456Z,60.23
2017-06-02T00:23:26.825Z,60
2017-06-02T00:24:36.898Z,60.13
2017-06-02T00:25:47.264Z,59.72
2017-06-02T00:26:57.294Z,60.13
2017-06-02T00:28:07.341Z,60.2
2017-06-02T00:29:17.682Z,60.3
2017-06-02T00:30:27.466Z,59.91
2017-06-02T00:31:37.502Z,60.1
2017-06-02T00:32:47.530Z,60.1
2017-06-02T00:33:57.898Z,60.1
2017-06-02T00:35:07.950Z,60.1
2017-06-02T00:36:18.043Z,60.1
2017-06-02T00:37:28.405Z,59.91
2017-06-02T00:38:38.766Z,60.1
2017-06-02T00:39:49.107Z,59.91
2017-06-02T00:40:59.445Z,59.91
2017-06-02T00:42:09.803Z,59.62
2017-06-02T00:43:20.149Z,59.72
2017-06-02T00:44:30.496Z,59.45
2017-06-02T00:45:40.841Z,59.81
2017-06-02T00:46:51.189Z,59.72
2017-06-02T00:48:01.590Z,59.45
2017-06-02T00:49:11.942Z,59.52
2017-06-02T00:50:22.009Z,59.81
2017-06-02T00:51:32.374Z,59.72
2017-06-02T00:52:42.735Z,59.36
2017-06-02T00:53:53.141Z,59.36
2017-06-02T00:55:03.489Z,59.27
2017-06-02T00:56:13.848Z,59.27
2017-06-02T00:57:24.187Z,59.36
2017-06-02T00:58:34.534Z,59.36
2017-06-02T00:59:44.868Z,59.36
2017-06-02T01:00:55.219Z,59.65
2017-06-02T01:02:04.960Z,59.65
2017-06-02T01:03:14.995Z,59.65
2017-06-02T01:04:25.356Z,59.65
2017-06-02T01:05:35.769Z,59.45
2017-06-02T01:06:46.125Z,59.75
2017-06-02T01:07:56.469Z,60.13
2017-06-02T01:09:06.843Z,60.03
2017-06-02T01:10:17.195Z,59.84
2017-06-02T01:11:27.558Z,60.03
2017-06-02T01:12:37.930Z,59.94
2017-06-02T01:13:48.524Z,59.84
2017-06-02T01:14:58.865Z,59.94
2017-06-02T01:16:08.908Z,60.13
2017-06-02T01:17:19.301Z,60.13
2017-06-02T01:18:29.346Z,60.61
2017-06-02T01:19:39.683Z,60.52
2017-06-02T01:20:50.039Z,60.32
2017-06-02T01:22:00.080Z,60
2017-06-02T01:23:10.499Z,60.23
2017-06-02T01:24:20.845Z,60.13
2017-06-02T01:25:31.203Z,60.1
2017-06-02T01:26:41.570Z,59.94
2017-06-02T01:27:51.940Z,60.03
2017-06-02T01:29:02.348Z,60.32
2017-06-02T01:30:12.688Z,60.03
2017-06-02T01:31:23.036Z,60.32
2017-06-02T01:32:33.399Z,60.13
2017-06-02T01:33:43.776Z,60.32
2017-06-02T01:34:54.110Z,60.32
2017-06-02T01:36:04.154Z,60.32
2017-06-02T01:37:14.499Z,60.32
2017-06-02T01:38:24.221Z,59.94
2017-06-02T01:39:34.262Z,60.23
2017-06-02T01:40:44.303Z,60.32
2017-06-02T01:41:54.669Z,60.23
2017-06-02T01:43:05.009Z,59.94
2017-06-02T01:44:15.368Z,60.13
2017-06-02T01:45:25.720Z,60.13
2017-06-02T01:46:35.195Z,60.13
2017-06-02T01:47:45.242Z,59.94
2017-06-02T01:48:55.602Z,59.45
2017-06-02T01:50:05.953Z,59.65
2017-06-02T01:51:16.298Z,59.65
2017-06-02T01:52:26.712Z,59.65
2017-06-02T01:53:37.120Z,59.65
2017-06-02T01:54:47.464Z,59.84
2017-06-02T01:55:57.502Z,59.45
2017-06-02T01:57:07.854Z,60.13
2017-06-02T01:58:18.249Z,60.32
2017-06-02T01:59:28.602Z,60.03
2017-06-02T02:00:38.944Z,60.13
2017-06-02T02:01:48.987Z,60.32
2017-06-02T02:02:59.329Z,59.75
2017-06-02T02:04:09.095Z,59.94
2017-06-02T02:05:19.450Z,60.13
2017-06-02T02:06:29.808Z,60.13
2017-06-02T02:07:39.874Z,59.65
2017-06-02T02:08:49.910Z,59.75
2017-06-02T02:09:59.987Z,59.75
2017-06-02T02:11:10.355Z,59.84
2017-06-02T02:12:20.706Z,59.75
2017-06-02T02:13:30.451Z,59.75
2017-06-02T02:14:40.827Z,59.45
2017-06-02T02:15:51.181Z,59.94
2017-06-02T02:17:01.219Z,60.23
2017-06-02T02:18:11.564Z,60.13
2017-06-02T02:19:21.289Z,60.03
2017-06-02T02:20:31.344Z,60.03
2017-06-02T02:21:41.761Z,60.03
2017-06-02T02:22:52.118Z,60.13
2017-06-02T02:24:02.460Z,60.03
2017-06-02T02:25:12.511Z,59.94
2017-06-02T02:26:22.549Z,60.13
2017-06-02T02:27:32.955Z,60.13
2017-06-02T02:28:43.307Z,60.13
2017-06-02T02:29:53.658Z,59.84
2017-06-02T02:31:03.383Z,59.75
2017-06-02T02:32:13.430Z,59.27
2017-06-02T02:33:23.904Z,59.27
2017-06-02T02:34:33.971Z,59.75
2017-06-02T02:35:44.323Z,59.27
2017-06-02T02:36:54.655Z,59.94
2017-06-02T02:38:04.989Z,60.13
2017-06-02T02:39:15.019Z,59.94
2017-06-02T02:40:25.566Z,60.32
2017-06-02T02:41:35.924Z,60.03
2017-06-02T02:42:45.959Z,60.32
2017-06-02T02:43:56.300Z,59.84
2017-06-02T02:45:06.707Z,60.23
2017-06-02T02:46:17.062Z,59.94
2017-06-02T02:47:27.416Z,59.94
2017-06-02T02:48:37.777Z,60
2017-06-02T02:49:47.507Z,60.61
2017-06-02T02:50:57.854Z,60.58
2017-06-02T02:52:08.204Z,60.49
2017-06-02T02:53:18.541Z,60.68
2017-06-02T02:54:28.895Z,60.49
2017-06-02T02:55:38.626Z,60.58
2017-06-02T02:56:49.021Z,60
2017-06-02T02:57:59.050Z,60.49
2017-06-02T02:59:09.387Z,60.49
2017-06-02T03:00:19.748Z,60.1
2017-06-02T03:01:30.116Z,60.58
2017-06-02T03:33:15.298Z,57.78
2017-06-02T03:34:25.643Z,57.97
2017-06-02T03:35:35.989Z,58.74
2017-06-02T03:36:46.024Z,59.22
2017-06-02T03:37:56.569Z,59.61
2017-06-02T03:39:06.663Z,60.38
2017-06-02T03:40:17.012Z,59.99
2017-06-02T03:41:27.358Z,60.21
2017-06-02T03:42:37.702Z,60.11
2017-06-02T03:43:48.061Z,60.11
2017-06-02T03:44:58.441Z,60.14
2017-06-02T03:46:08.808Z,60.08
2017-06-02T03:47:19.162Z,60.56
2017-06-02T03:48:29.527Z,60.3
2017-06-02T03:49:39.870Z,59.82
2017-06-02T03:50:50.276Z,59.82
2017-06-02T03:52:00.630Z,59.94
2017-06-02T03:53:10.974Z,59.37
2017-06-02T03:54:21.330Z,59.66
2017-06-02T03:55:31.679Z,59.69
2017-06-02T03:56:41.758Z,59.3
2017-06-02T03:57:52.112Z,59.23
2017-06-02T03:59:02.220Z,59.43
2017-06-02T04:00:12.560Z,59.52
2017-06-02T04:01:22.599Z,59.52
2017-06-02T04:02:32.994Z,59.33
2017-06-02T04:03:43.031Z,59.43
2017-06-02T04:04:53.397Z,59.45
2017-06-02T04:06:03.440Z,59.17
2017-06-02T04:07:14.049Z,59.27
2017-06-02T04:08:24.142Z,59.55
2017-06-02T04:09:34.233Z,59.45
2017-06-02T04:10:44.630Z,59.55
2017-06-02T04:11:55.007Z,59.48
2017-06-02T04:13:05.356Z,59.48
2017-06-02T04:14:15.766Z,59.3
2017-06-02T04:15:26.126Z,59
2017-06-02T04:16:36.480Z,59.13
2017-06-02T04:17:46.517Z,58.75
2017-06-02T04:18:56.932Z,57.59
2017-06-02T04:20:07.300Z,55.65
2017-06-02T04:21:17.646Z,54.95
2017-06-02T04:22:27.683Z,54.71
2017-06-02T04:23:38.015Z,54.09
2017-06-02T04:24:48.058Z,54.21
2017-06-02T04:25:58.149Z,54.14
2017-06-02T04:27:08.185Z,54.36
2017-06-02T04:28:18.526Z,53.74
2017-06-02T04:29:28.875Z,53.67
2017-06-02T04:30:38.606Z,53.4
2017-06-02T04:31:48.648Z,54.11
2017-06-02T04:32:58.689Z,54.16
2017-06-02T04:34:09.040Z,53.7
2017-06-02T04:35:18.764Z,53.14
2017-06-02T04:36:28.486Z,53.27
2017-06-02T04:37:38.522Z,53.49
2017-06-02T04:38:48.869Z,53.22
2017-06-02T04:39:59.225Z,52.95
2017-06-02T04:41:09.277Z,53.37
2017-06-02T04:42:19.634Z,53.47
2017-06-02T04:43:30.080Z,53.49
2017-06-02T04:44:40.437Z,53.81
2017-06-02T04:45:50.793Z,53.64
2017-06-02T04:47:00.831Z,53.35
2017-06-02T04:48:11.188Z,53.64
2017-06-02T04:49:21.268Z,53.67
2017-06-02T04:50:31.633Z,53.38
2017-06-02T04:51:41.983Z,53.69
2017-06-02T04:52:52.018Z,53.4
2017-06-02T04:54:02.047Z,53.4
2017-06-02T04:55:11.829Z,53.63
2017-06-02T04:56:22.179Z,53.63
2017-06-02T04:57:31.906Z,54.02
2017-06-02T04:58:42.261Z,54.41
2017-06-02T04:59:51.982Z,54.5
2017-06-02T05:01:02.379Z,54.02
2017-06-02T05:02:12.425Z,54.21
2017-06-02T05:03:22.771Z,53.82
2017-06-02T05:04:33.123Z,53.92
2017-06-02T05:05:42.854Z,54.21
2017-06-02T05:06:53.220Z,54.21
2017-06-02T05:08:03.269Z,54.21
2017-06-02T05:09:13.629Z,54.11
2017-06-02T05:10:23.671Z,54.11
2017-06-02T05:11:34.034Z,53.92
2017-06-02T05:12:44.134Z,54.21
2017-06-02T05:13:54.200Z,54.11
2017-06-02T05:15:04.244Z,54.21
2017-06-02T05:16:14.599Z,53.92
2017-06-02T05:17:24.641Z,54.04
2017-06-02T05:18:35.005Z,54.04
2017-06-02T05:19:45.047Z,54.24
2017-06-02T05:20:55.407Z,53.85
2017-06-02T05:22:05.755Z,54.14
2017-06-02T05:23:16.115Z,53.85
2017-06-02T05:24:26.207Z,54.24
2017-06-02T05:25:36.254Z,53.85
2017-06-02T05:26:46.282Z,54.24
2017-06-02T05:27:56.317Z,54.53
2017-06-02T05:29:06.368Z,54.04
2017-06-02T05:30:16.770Z,53.75
2017-06-02T05:31:27.137Z,53.55
2017-06-02T05:32:37.187Z,53.45
2017-06-02T05:33:47.238Z,53.45
2017-06-02T05:34:57.598Z,53.43
2017-06-02T05:36:08.010Z,53.33
2017-06-02T05:37:18.051Z,53.55
2017-06-02T05:38:28.625Z,53.36
2017-06-02T05:39:38.675Z,53.63
2017-06-02T05:40:49.035Z,53.72
2017-06-02T05:41:59.122Z,53.5
2017-06-02T05:43:09.173Z,54.38
2017-06-02T05:44:19.518Z,53.99
2017-06-02T05:45:29.579Z,54.85
2017-06-02T05:46:39.940Z,54.91
2017-06-02T05:47:50.309Z,54.69
2017-06-02T05:49:00.668Z,54.72
2017-06-02T05:50:10.697Z,53.94
2017-06-02T05:51:21.069Z,54.03
2017-06-02T05:52:31.428Z,54.03
2017-06-02T05:53:41.476Z,54.03
2017-06-02T05:54:51.818Z,54.03
2017-06-02T05:56:01.850Z,53.74
2017-06-02T05:57:11.883Z,54.03
2017-06-02T05:58:22.228Z,53.84
2017-06-02T05:59:32.574Z,53.84
2017-06-02T06:00:42.620Z,54.82
2017-06-02T06:01:52.671Z,54.72
2017-06-02T06:03:03.032Z,54.89
2017-06-02T06:04:13.394Z,54.6
2017-06-02T06:05:24.057Z,54.43
2017-06-02T06:06:34.109Z,54.6
2017-06-02T06:07:44.468Z,54.4
2017-06-02T06:08:54.499Z,54.89
2017-06-02T06:10:04.847Z,54.69
2017-06-02T06:11:14.929Z,54.69
2017-06-02T06:12:24.971Z,55.18
2017-06-02T06:13:35.006Z,55.84
2017-06-02T06:14:45.343Z,56.27
2017-06-02T06:15:55.708Z,56.54
2017-06-02T06:17:06.122Z,56.93
2017-06-02T06:18:16.178Z,56.32
2017-06-02T06:19:25.891Z,55.86
2017-06-02T06:20:36.244Z,54.49
2017-06-02T06:21:46.606Z,54.61
2017-06-02T06:22:56.982Z,54.91
2017-06-02T06:24:07.362Z,54.49
2017-06-02T06:25:17.730Z,54.42
2017-06-02T06:26:27.789Z,54.05
2017-06-02T06:27:37.818Z,54.28
2017-06-02T06:28:48.202Z,53.86
2017-06-02T06:29:58.244Z,54.74
2017-06-02T06:31:08.597Z,54.91
2017-06-02T06:32:18.640Z,54.98
2017-06-02T06:33:28.358Z,55.66
2017-06-02T06:34:38.398Z,55.83
2017-06-02T06:35:48.771Z,55.44
2017-06-02T06:36:59.123Z,55.9
2017-06-02T06:38:09.174Z,55.8
2017-06-02T06:39:19.536Z,55.9
2017-06-02T06:40:29.879Z,55.77
2017-06-02T06:41:40.242Z,55.77
2017-06-02T06:42:50.605Z,55.87
2017-06-02T06:44:00.658Z,55.77
2017-06-02T06:45:11.023Z,55.58
2017-06-02T06:46:21.116Z,55.75
2017-06-02T06:47:31.174Z,55.85
2017-06-02T06:48:41.241Z,55.65
2017-06-02T06:49:50.977Z,55.94
2017-06-02T06:51:01.030Z,56.04
2017-06-02T06:52:11.421Z,56.01
2017-06-02T06:53:21.147Z,56.11
2017-06-02T06:54:31.184Z,56.4
2017-06-02T06:55:41.235Z,56.01
2017-06-02T06:56:50.950Z,55.89
2017-06-02T06:58:00.991Z,56.09
2017-06-02T06:59:11.350Z,56.45
2017-06-02T07:00:21.692Z,56.93
2017-06-02T07:01:32.054Z,55.83
2017-06-02T07:02:42.411Z,55.96
2017-06-02T07:03:51.877Z,55.96
2017-06-02T07:05:02.226Z,56.15
2017-06-02T07:06:12.596Z,56.22
2017-06-02T07:07:22.954Z,56.15
2017-06-02T07:08:33.325Z,55.86
2017-06-02T07:09:43.679Z,55.76
2017-06-02T07:10:54.038Z,55.86
2017-06-02T07:12:03.769Z,55.86
2017-06-02T07:13:14.112Z,56.25
2017-06-02T07:14:24.474Z,56.05
2017-06-02T07:15:34.580Z,56.05
2017-06-02T07:16:44.926Z,56.25
2017-06-02T07:17:54.670Z,56.25
2017-06-02T07:19:05.026Z,56.45
2017-06-02T07:20:15.362Z,56.74
2017-06-02T07:21:25.490Z,56.74
2017-06-02T07:22:35.836Z,56.45
2017-06-02T07:23:45.562Z,56.45
2017-06-02T07:24:55.914Z,56.25
2017-06-02T07:26:06.290Z,56.45
2017-06-02T07:27:16.698Z,56.05
2017-06-02T07:28:26.416Z,56.05
2017-06-02T07:29:35.838Z,56.45
2017-06-02T07:30:45.874Z,56.35
2017-06-02T07:31:55.926Z,56.84
2017-06-02T07:33:06.342Z,56.45
2017-06-02T07:34:16.701Z,56.84
2017-06-02T07:35:27.053Z,56.93
2017-06-02T07:36:37.092Z,56.76
2017-06-02T07:37:47.439Z,56.27
2017-06-02T07:38:57.171Z,56.57
2017-06-02T07:40:07.543Z,56.37
2017-06-02T07:41:17.900Z,56.37
2017-06-02T07:42:28.242Z,56.57
2017-06-02T07:43:38.603Z,56.37
2017-06-02T07:44:48.685Z,56.27
2017-06-02T07:45:58.426Z,56.86
2017-06-02T07:47:08.774Z,56.86
2017-06-02T07:48:19.134Z,56.37
2017-06-02T07:49:29.482Z,56.18
2017-06-02T07:50:39.883Z,56.18
2017-06-02T07:51:50.225Z,56.47
2017-06-02T07:52:59.967Z,56.18
2017-06-02T07:54:10.026Z,56.47
2017-06-02T07:55:20.381Z,56.57
2017-06-02T07:56:29.483Z,56.67
2017-06-02T07:57:39.859Z,56.4
2017-06-02T07:58:50.226Z,56.4
2017-06-02T07:59:59.647Z,56.5
2017-06-02T08:01:10.047Z,56.4
2017-06-02T08:02:20.457Z,56.3
2017-06-02T08:03:30.802Z,56.23
2017-06-02T08:04:40.832Z,56.23
2017-06-02T08:05:50.882Z,56.04
2017-06-02T08:07:01.256Z,55.94
2017-06-02T08:08:11.325Z,56.14
2017-06-02T08:09:21.370Z,56.14
2017-06-02T08:10:31.717Z,56.16
2017-06-02T08:11:42.086Z,56.56
2017-06-02T08:12:52.441Z,56.36
2017-06-02T08:14:02.850Z,55.87
2017-06-02T08:15:13.208Z,56.07
2017-06-02T08:16:23.577Z,56.1
2017-06-02T08:17:33.610Z,56.48
2017-06-02T08:18:43.650Z,56.1
2017-06-02T08:19:54.055Z,56.1
2017-06-02T08:21:04.422Z,55.83
2017-06-02T08:22:14.783Z,55.93
2017-06-02T08:23:24.209Z,55.96
2017-06-02T08:24:34.564Z,55.86
2017-06-02T08:25:44.986Z,55.57
2017-06-02T08:26:54.758Z,55.79
2017-06-02T08:28:04.805Z,55.88
2017-06-02T08:29:14.838Z,55.88
2017-06-02T08:30:25.184Z,55.62
2017-06-02T08:31:34.983Z,55.81
2017-06-02T08:32:45.336Z,55.84
2017-06-02T08:33:55.684Z,55.65
2017-06-02T08:35:05.409Z,55.84
2017-06-02T08:36:15.766Z,56.13
2017-06-02T08:37:26.179Z,55.65
2017-06-02T08:38:36.621Z,55.81
2017-06-02T08:39:46.648Z,56.04
2017-06-02T08:40:57.005Z,56.04
2017-06-02T08:42:07.061Z,55.74
2017-06-02T08:43:17.488Z,55.74
2017-06-02T08:44:27.536Z,55.55
2017-06-02T08:45:37.883Z,55.55
2017-06-02T08:46:47.927Z,55.96
2017-06-02T08:47:58.285Z,55.67
2017-06-02T08:49:08.734Z,56.04
2017-06-02T08:50:18.490Z,55.94
2017-06-02T08:51:28.844Z,55.84
2017-06-02T08:52:38.878Z,55.65
2017-06-02T08:53:49.230Z,55.96
2017-06-02T08:54:59.597Z,55.57
2017-06-02T08:56:09.636Z,55.55
2017-06-02T08:57:19.673Z,55.67
2017-06-02T08:58:30.030Z,55.67
2017-06-02T08:59:40.385Z,55.67
2017-06-02T09:00:50.805Z,55.57
2017-06-02T09:02:01.183Z,55.67
2017-06-02T09:03:11.229Z,55.67
2017-06-02T09:04:21.635Z,55.87
2017-06-02T09:05:31.665Z,56.06
2017-06-02T09:06:42.038Z,55.96
2017-06-02T09:07:52.381Z,56.16
2017-06-02T09:09:02.743Z,55.77
2017-06-02T09:10:13.144Z,55.67
2017-06-02T09:11:23.502Z,56.16
2017-06-02T09:12:33.865Z,55.9
2017-06-02T09:13:44.290Z,56.19
2017-06-02T09:14:54.662Z,55.7
2017-06-02T09:16:05.062Z,56.19
2017-06-02T09:17:15.423Z,55.99
2017-06-02T09:18:25.778Z,56.19
2017-06-02T09:19:36.119Z,56.48
2017-06-02T09:20:46.161Z,56.58
2017-06-02T09:21:56.259Z,56.19
2017-06-02T09:23:06.614Z,56.85
2017-06-02T09:24:16.980Z,56.19
2017-06-02T09:25:27.030Z,56.36
2017-06-02T09:26:37.393Z,56.26
2017-06-02T09:27:47.777Z,56.56
2017-06-02T09:28:58.128Z,56.65
2017-06-02T09:30:08.504Z,56.65
2017-06-02T09:31:18.856Z,56.65
2017-06-02T09:32:29.198Z,56.75
2017-06-02T09:33:39.304Z,56.75
2017-06-02T09:34:49.047Z,56.65
2017-06-02T09:35:59.418Z,56.65
2017-06-02T09:37:09.455Z,56.65
2017-06-02T09:38:19.495Z,56.72
2017-06-02T09:39:29.894Z,56.65
2017-06-02T09:40:39.949Z,56.95
2017-06-02T09:41:50.323Z,56.16
2017-06-02T09:43:00.690Z,56.46
2017-06-02T09:44:11.065Z,56.56
2017-06-02T09:45:21.473Z,56.65
2017-06-02T09:46:31.830Z,56.85
2017-06-02T09:47:42.211Z,56.16
2017-06-02T09:48:52.568Z,56.16
2017-06-02T09:50:03.155Z,56.29
2017-06-02T09:51:13.563Z,56.38
2017-06-02T09:52:23.936Z,56.68
2017-06-02T09:53:34.286Z,56.77
2017-06-02T09:54:44.660Z,56.21
2017-06-02T09:55:54.701Z,56.81
2017-06-02T09:57:05.100Z,56.81
2017-06-02T09:58:15.147Z,56.41
2017-06-02T09:59:25.504Z,56.21
2017-06-02T10:00:35.876Z,56.61
2017-06-02T10:01:45.611Z,56.71
2017-06-02T10:02:56.041Z,56.68
2017-06-02T10:04:06.081Z,56.68
2017-06-02T10:05:16.447Z,56.38
2017-06-02T10:06:26.498Z,56.58
2017-06-02T10:07:36.857Z,56.38
2017-06-02T10:08:46.902Z,56.61
2017-06-02T10:09:57.264Z,56.31
2017-06-02T10:11:07.849Z,56.71
2017-06-02T10:12:17.882Z,56.51
2017-06-02T10:13:28.244Z,56.51
2017-06-02T10:14:38.344Z,56.41
2017-06-02T10:15:48.773Z,56.51
2017-06-02T10:16:59.139Z,56.61
2017-06-02T10:18:09.486Z,56.51
2017-06-02T10:19:19.854Z,56.71
2017-06-02T10:20:29.984Z,56.61
2017-06-02T10:21:40.352Z,56.61
2017-06-02T10:22:50.712Z,56.41
2017-06-02T10:24:00.758Z,56.41
2017-06-02T10:25:11.138Z,56.61
2017-06-02T10:26:21.554Z,56.51
2017-06-02T10:27:31.604Z,56.31
2017-06-02T10:28:41.963Z,56.41
2017-06-02T10:29:52.322Z,56.31
2017-06-02T10:31:02.685Z,56.51
2017-06-02T10:32:12.777Z,56.15
2017-06-02T10:33:23.125Z,56.44
2017-06-02T10:34:33.486Z,56.15
2017-06-02T10:35:43.539Z,55.95
2017-06-02T10:36:53.590Z,56.44
2017-06-02T10:38:03.965Z,56.15
2017-06-02T10:39:14.335Z,56.57
2017-06-02T10:40:24.681Z,56.47
2017-06-02T10:41:34.420Z,56.17
2017-06-02T10:42:44.770Z,56.07
2017-06-02T10:43:55.179Z,56.27
2017-06-02T10:45:04.921Z,56.67
2017-06-02T10:46:14.969Z,56.47
2017-06-02T10:47:25.396Z,56.37
2017-06-02T10:48:35.762Z,56.76
2017-06-02T10:49:46.171Z,56.47
2017-06-02T10:50:56.213Z,56.47
2017-06-02T10:52:06.278Z,56.47
2017-06-02T10:53:16.380Z,56.37
2017-06-02T10:54:26.770Z,56.76
2017-06-02T10:55:36.912Z,56.93
2017-06-02T10:56:47.321Z,56.24
2017-06-02T10:57:57.682Z,56.34
2017-06-02T10:59:07.974Z,56.44
2017-06-02T11:00:17.746Z,56.73
2017-06-02T11:01:28.153Z,56.54
2017-06-02T11:02:38.749Z,56.44
2017-06-02T11:03:48.828Z,56.63
2017-06-02T11:04:58.554Z,56.44
2017-06-02T11:06:08.915Z,56.54
2017-06-02T11:07:18.651Z,56.34
2017-06-02T11:08:28.733Z,56.44
2017-06-02T11:09:39.120Z,56.63
2017-06-02T11:10:49.175Z,56.63
2017-06-02T11:11:59.555Z,56.47
2017-06-02T11:13:09.309Z,56.37
2017-06-02T11:14:19.683Z,56.17
2017-06-02T11:15:30.058Z,56.57
2017-06-02T11:16:40.429Z,56.17
2017-06-02T11:17:50.468Z,56.17
2017-06-02T11:19:00.865Z,56.07
2017-06-02T11:20:11.253Z,56.57
2017-06-02T11:21:21.638Z,56.67
2017-06-02T11:22:31.720Z,56.57
2017-06-02T11:23:42.148Z,56.47
2017-06-02T11:24:52.548Z,56.47
2017-06-02T11:26:02.903Z,55.98
2017-06-02T11:27:12.641Z,56.07
2017-06-02T11:28:22.704Z,56.27
2017-06-02T11:29:33.081Z,56.47
2017-06-02T11:30:43.672Z,56.47
2017-06-02T11:31:53.726Z,56.57
2017-06-02T11:33:04.112Z,56.07
2017-06-02T11:34:14.139Z,56.2
2017-06-02T11:35:24.200Z,56.3
2017-06-02T11:36:34.251Z,56.1
2017-06-02T11:37:44.329Z,56.4
2017-06-02T11:38:54.459Z,56.67
2017-06-02T11:40:04.897Z,56.67
2017-06-02T11:41:15.344Z,56.76
2017-06-02T11:42:25.575Z,56.37
2017-06-02T11:43:35.742Z,56.57
2017-06-02T11:44:45.866Z,56.4
2017-06-02T11:45:56.277Z,56.79
2017-06-02T11:47:06.641Z,56.59
2017-06-02T11:48:17.003Z,56.2
2017-06-02T11:49:27.358Z,56.23
2017-06-02T11:50:37.752Z,56.03
2017-06-02T11:51:48.189Z,56.52
2017-06-02T11:52:58.620Z,56.13
2017-06-02T11:54:08.712Z,56.52
2017-06-02T11:55:19.076Z,56.72
2017-06-02T11:56:29.450Z,56.32
2017-06-02T11:57:39.203Z,56.72
2017-06-02T11:58:49.562Z,56.69
2017-06-02T11:59:59.606Z,56.59
2017-06-02T12:01:09.972Z,56.69
2017-06-02T12:02:19.771Z,56.49
2017-06-02T12:03:29.829Z,56.62
2017-06-02T12:04:39.907Z,56.52
2017-06-02T12:05:50.369Z,56.62
2017-06-02T12:07:00.821Z,56.23
2017-06-02T12:08:10.445Z,56.2
2017-06-02T12:09:20.876Z,56.13
2017-06-02T12:10:31.247Z,56.13
2017-06-02T12:11:41.674Z,56.23
2017-06-02T12:12:51.406Z,56.62
2017-06-02T12:14:01.452Z,56.72
2017-06-02T12:15:11.821Z,56.49
2017-06-02T12:16:21.561Z,56.59
2017-06-02T12:17:31.664Z,56.4
2017-06-02T12:18:41.710Z,56.79
2017-06-02T12:19:52.091Z,56.49
2017-06-02T12:21:02.432Z,56.3
2017-06-02T12:22:12.483Z,56.79
2017-06-02T12:23:22.572Z,56.2
2017-06-02T12:24:32.633Z,56.4
2017-06-02T12:25:42.699Z,56.59
2017-06-02T12:26:52.444Z,56.42
2017-06-02T12:28:02.806Z,56.52
2017-06-02T12:29:13.176Z,56.52
2017-06-02T12:30:23.542Z,56.03
2017-06-02T12:31:33.900Z,56.32
2017-06-02T12:32:43.946Z,56.06
2017-06-02T12:33:54.327Z,56.26
2017-06-02T12:35:04.744Z,56.45
2017-06-02T12:36:15.097Z,56.62
2017-06-02T12:37:25.496Z,56.26
2017-06-02T12:38:35.863Z,56.65
2017-06-02T12:39:45.791Z,56.65
2017-06-02T12:40:55.876Z,56.52
2017-06-02T12:42:06.243Z,56.62
2017-06-02T12:43:16.596Z,56.42
2017-06-02T12:44:26.647Z,56.62
2017-06-02T12:45:37.004Z,56.23
2017-06-02T12:46:47.368Z,56.23
2017-06-02T12:47:57.734Z,56.32
2017-06-02T12:49:08.107Z,56.62
2017-06-02T12:50:18.476Z,56.65
2017-06-02T12:51:28.841Z,56.32
2017-06-02T12:52:39.236Z,56.62
2017-06-02T12:53:49.593Z,57.21
2017-06-02T12:54:59.334Z,56.72
2017-06-02T12:56:09.719Z,56.42
2017-06-02T12:57:19.454Z,56.52
2017-06-02T12:58:29.549Z,56.55
2017-06-02T12:59:39.646Z,56.65
2017-06-02T13:00:50.025Z,56.45
2017-06-02T13:02:00.405Z,56.48
2017-06-02T13:03:10.757Z,56.09
2017-06-02T13:04:20.865Z,55.99
2017-06-02T13:05:31.220Z,55.91
2017-06-02T13:06:40.957Z,55.91
2017-06-02T13:07:51.305Z,56.01
2017-06-02T13:09:01.329Z,56.31
2017-06-02T13:10:11.744Z,56.31
2017-06-02T13:11:22.094Z,56.11
2017-06-02T13:12:32.475Z,56.51
2017-06-02T13:13:42.528Z,56.11
2017-06-02T13:14:52.880Z,56.31
2017-06-02T13:16:03.300Z,56.21
2017-06-02T13:17:13.669Z,56.41
2017-06-02T13:18:23.736Z,56.68
2017-06-02T13:19:33.776Z,56.68
2017-06-02T13:20:43.509Z,56.51
2017-06-02T13:21:53.916Z,56.41
2017-06-02T13:23:03.958Z,56.31
2017-06-02T13:24:13.364Z,55.85
2017-06-02T13:25:23.722Z,56.24
2017-06-02T13:26:34.083Z,56.14
2017-06-02T13:27:44.479Z,56.07
2017-06-02T13:28:54.832Z,56.27
2017-06-02T13:30:05.198Z,55.97
2017-06-02T13:31:15.564Z,56.27
2017-06-02T13:32:25.609Z,56.16
2017-06-02T13:33:36.009Z,56.16
2017-06-02T13:34:46.389Z,55.97
2017-06-02T13:35:56.450Z,56.07
2017-06-02T13:37:06.819Z,56.29
2017-06-02T13:38:17.184Z,56.16
2017-06-02T13:39:27.528Z,56.07
2017-06-02T13:40:37.901Z,55.97
2017-06-02T13:41:48.250Z,56.16
2017-06-02T13:42:58.618Z,56.07
2017-06-02T13:44:08.990Z,56.07
2017-06-02T13:45:19.090Z,56.07
2017-06-02T13:46:29.476Z,55.97
2017-06-02T13:47:39.549Z,56.07
2017-06-02T13:48:49.966Z,56.56
2017-06-02T13:50:00.376Z,57.78
2017-06-02T13:51:10.233Z,57.36
2017-06-02T13:52:20.670Z,57.82
2017-06-02T13:53:31.184Z,58.48
2017-06-02T13:54:41.827Z,58.39
2017-06-02T13:55:52.245Z,58.36
2017-06-02T13:57:02.613Z,57.77
2017-06-02T13:58:12.685Z,57.21
2017-06-02T13:59:23.051Z,56.55
2017-06-02T14:00:33.420Z,56.45
2017-06-02T14:01:43.144Z,57.07
2017-06-02T14:02:53.536Z,56.92
2017-06-02T14:04:03.584Z,56.72
2017-06-02T14:05:13.963Z,57.11
2017-06-02T14:06:24.356Z,56.55
2017-06-02T14:07:34.729Z,56.45
2017-06-02T14:08:44.791Z,57.04
2017-06-02T14:09:54.860Z,57.6
2017-06-02T14:11:05.237Z,58.06
2017-06-02T14:12:15.606Z,58.43
2017-06-02T14:13:25.985Z,58.01
2017-06-02T14:14:36.427Z,57.74
2017-06-02T14:15:46.796Z,56.86
2017-06-02T14:16:57.185Z,56.79
2017-06-02T14:18:07.563Z,56.49
2017-06-02T14:19:17.962Z,56.79
2017-06-02T14:20:28.073Z,56.62
2017-06-02T14:21:38.468Z,56.62
2017-06-02T14:22:48.832Z,56.62
2017-06-02T14:23:58.893Z,56.82
2017-06-02T14:25:09.012Z,57.4
2017-06-02T14:26:19.118Z,57.67
2017-06-02T14:27:28.569Z,57.74
2017-06-02T14:28:38.933Z,56.98
2017-06-02T14:29:49.320Z,57.48
2017-06-02T14:30:59.711Z,57.54
2017-06-02T14:32:09.826Z,58.3
2017-06-02T14:33:20.206Z,58.47
2017-06-02T14:34:30.585Z,58.76
2017-06-02T14:35:40.945Z,58.54
2017-06-02T14:36:51.324Z,58.61
2017-06-02T14:38:01.760Z,58.61
2017-06-02T14:39:12.122Z,58.61
2017-06-02T14:40:22.170Z,58.38
2017-06-02T14:41:32.552Z,58.02
2017-06-02T14:42:42.637Z,58.12
2017-06-02T14:43:53.011Z,57.73
2017-06-02T14:45:03.074Z,57.73
2017-06-02T14:46:13.439Z,58.31
2017-06-02T14:47:23.794Z,58.41
2017-06-02T14:48:34.164Z,57.92
2017-06-02T14:49:44.278Z,57.82
2017-06-02T14:50:54.025Z,58.41
2017-06-02T14:52:04.085Z,58.31
2017-06-02T14:53:14.161Z,57.99
2017-06-02T14:54:24.529Z,58.18
2017-06-02T14:55:35.216Z,57.99
2017-06-02T14:56:45.594Z,58.06
2017-06-02T14:57:55.346Z,58.09
2017-06-02T14:59:05.613Z,58.06
2017-06-02T15:00:16.004Z,57.77
2017-06-02T15:01:26.433Z,56.75
2017-06-02T15:02:36.818Z,57.34
2017-06-02T15:03:47.203Z,56.77
2017-06-02T15:04:57.587Z,56.68
2017-06-02T15:06:08.204Z,57.1
2017-06-02T15:07:18.320Z,56.81
2017-06-02T15:08:28.077Z,57.1
2017-06-02T15:09:38.139Z,57.39
2017-06-02T15:10:48.206Z,57.59
2017-06-02T15:11:58.566Z,57.29
2017-06-02T15:13:08.666Z,57.32
2017-06-02T15:14:18.734Z,57.81
2017-06-02T15:15:29.124Z,57.52
2017-06-02T15:16:39.513Z,57.88
2017-06-02T15:17:49.870Z,58.25
2017-06-02T15:19:00.279Z,58.34
2017-06-02T15:20:10.664Z,58.93
2017-06-02T15:21:21.019Z,58.61
2017-06-02T15:22:31.391Z,58.02
2017-06-02T15:23:41.441Z,57.36
2017-06-02T15:24:51.257Z,57.68
2017-06-02T15:26:01.674Z,57.49
2017-06-02T15:27:12.078Z,56.9
2017-06-02T15:28:22.185Z,56.9
2017-06-02T15:29:32.601Z,56.83
2017-06-02T15:30:43.057Z,56.93
2017-06-02T15:31:53.471Z,57.12
2017-06-02T15:33:03.902Z,57.03
2017-06-02T15:34:14.304Z,57.42
2017-06-02T15:35:24.706Z,57.62
2017-06-02T15:36:35.148Z,57.71